sensor_id;sensor_type;location;lat;lon;timestamp;P1;durP1;ratioP1;P2;durP2;ratioP2
31454;SDS011;18084;53.028;8.834;2023-10-09T05:47:04;1.45;;;1.35;;
31454;SDS011;18084;53.028;8.834;2023-10-09T05:49:59;1.23;;;1.13;;
31454;SDS011;18084;53.028;8.834;2023-10-09T05:52:48;0.73;;;0.68;;
31454;SDS011;18084;53.028;8.834;2023-10-09T05:55:17;0.47;;;0.47;;
31454;SDS011;18084;53.028;8.834;2023-10-09T05:57:49;1.75;;;1.40;;
31454;SDS011;18084;53.028;8.834;2023-10-09T06:05:43;1.20;;;1.10;;
31454;SDS011;18084;53.028;8.834;2023-10-09T06:08:35;0.13;;;0.13;;
31454;SDS011;18084;53.028;8.834;2023-10-09T06:11:10;9.88;;;0.95;;
31454;SDS011;18084;53.028;8.834;2023-10-09T06:13:56;1.60;;;1.50;;
31454;SDS011;18084;53.028;8.834;2023-10-09T06:16:35;2.03;;;1.27;;
31454;SDS011;18084;53.028;8.834;2023-10-09T06:19:04;1.30;;;1.20;;
31454;SDS011;18084;53.028;8.834;2023-10-09T06:21:33;1.08;;;1.08;;
31454;SDS011;18084;53.028;8.834;2023-10-09T06:24:25;1.30;;;1.20;;
31454;SDS011;18084;53.028;8.834;2023-10-09T06:26:58;0.77;;;0.77;;
31454;SDS011;18084;53.028;8.834;2023-10-09T06:29:24;0.43;;;0.43;;
31454;SDS011;18084;53.028;8.834;2023-10-09T06:32:09;0.98;;;0.98;;
31454;SDS011;18084;53.028;8.834;2023-10-09T06:34:52;0.80;;;0.80;;
31454;SDS011;18084;53.028;8.834;2023-10-09T06:37:40;2.05;;;1.48;;
31454;SDS011;18084;53.028;8.834;2023-10-09T06:40:25;0.77;;;0.63;;
31454;SDS011;18084;53.028;8.834;2023-10-09T06:43:10;1.13;;;0.85;;
31454;SDS011;18084;53.028;8.834;2023-10-09T06:45:52;1.17;;;1.15;;
31454;SDS011;18084;53.028;8.834;2023-10-09T06:48:38;1.42;;;1.33;;
31454;SDS011;18084;53.028;8.834;2023-10-09T06:53:39;0.60;;;0.60;;
31454;SDS011;18084;53.028;8.834;2023-10-09T06:56:26;1.92;;;1.00;;
31454;SDS011;18084;53.028;8.834;2023-10-09T06:58:58;1.90;;;1.80;;
31454;SDS011;18084;53.028;8.834;2023-10-09T07:01:46;1.25;;;1.15;;
31454;SDS011;18084;53.028;8.834;2023-10-09T07:04:32;1.38;;;1.30;;
31454;SDS011;18084;53.028;8.834;2023-10-09T07:07:01;2.40;;;2.20;;
31454;SDS011;18084;53.028;8.834;2023-10-09T07:09:32;0.77;;;0.77;;
31454;SDS011;18084;53.028;8.834;2023-10-09T07:12:07;1.60;;;1.50;;
31454;SDS011;18084;53.028;8.834;2023-10-09T07:14:51;2.00;;;1.90;;
31454;SDS011;18084;53.028;8.834;2023-10-09T07:17:32;1.40;;;1.30;;
31454;SDS011;18084;53.028;8.834;2023-10-09T07:20:00;3.08;;;2.78;;
31454;SDS011;18084;53.028;8.834;2023-10-09T07:22:39;2.20;;;2.05;;
31454;SDS011;18084;53.028;8.834;2023-10-09T07:25:17;1.02;;;0.93;;
31454;SDS011;18084;53.028;8.834;2023-10-09T07:28:05;0.88;;;0.88;;
31454;SDS011;18084;53.028;8.834;2023-10-09T07:30:43;1.63;;;1.52;;
31454;SDS011;18084;53.028;8.834;2023-10-09T07:35:41;2.00;;;1.88;;
31454;SDS011;18084;53.028;8.834;2023-10-09T07:38:18;1.20;;;1.20;;
31454;SDS011;18084;53.028;8.834;2023-10-09T07:41:00;0.65;;;0.65;;
31454;SDS011;18084;53.028;8.834;2023-10-09T07:43:30;6.03;;;2.78;;
31454;SDS011;18084;53.028;8.834;2023-10-09T07:46:15;1.42;;;1.35;;
31454;SDS011;18084;53.028;8.834;2023-10-09T07:49:20;2.63;;;2.42;;
31454;SDS011;18084;53.028;8.834;2023-10-09T07:51:51;1.33;;;1.23;;
31454;SDS011;18084;53.028;8.834;2023-10-09T07:54:20;2.92;;;2.20;;
31454;SDS011;18084;53.028;8.834;2023-10-09T07:57:06;1.42;;;1.33;;
31454;SDS011;18084;53.028;8.834;2023-10-09T07:59:40;1.67;;;1.58;;
31454;SDS011;18084;53.028;8.834;2023-10-09T08:02:19;3.08;;;2.88;;
31454;SDS011;18084;53.028;8.834;2023-10-09T08:05:00;1.48;;;1.38;;
31454;SDS011;18084;53.028;8.834;2023-10-09T08:07:44;2.15;;;2.05;;
31454;SDS011;18084;53.028;8.834;2023-10-09T08:10:44;3.00;;;2.10;;
31454;SDS011;18084;53.028;8.834;2023-10-09T08:13:28;3.83;;;2.58;;
31454;SDS011;18084;53.028;8.834;2023-10-09T08:16:12;1.38;;;1.27;;
31454;SDS011;18084;53.028;8.834;2023-10-09T08:18:46;2.05;;;1.95;;
31454;SDS011;18084;53.028;8.834;2023-10-09T08:21:16;0.68;;;0.68;;
31454;SDS011;18084;53.028;8.834;2023-10-09T08:23:42;1.45;;;1.35;;
31454;SDS011;18084;53.028;8.834;2023-10-09T08:26:14;1.92;;;1.83;;
31454;SDS011;18084;53.028;8.834;2023-10-09T08:29:06;0.77;;;0.77;;
31454;SDS011;18084;53.028;8.834;2023-10-09T08:31:42;1.42;;;1.33;;
31454;SDS011;18084;53.028;8.834;2023-10-09T08:34:17;0.70;;;0.70;;
31454;SDS011;18084;53.028;8.834;2023-10-09T08:36:52;1.77;;;1.65;;
31454;SDS011;18084;53.028;8.834;2023-10-09T08:39:25;1.38;;;1.33;;
31454;SDS011;18084;53.028;8.834;2023-10-09T08:41:55;2.17;;;2.00;;
31454;SDS011;18084;53.028;8.834;2023-10-09T08:44:26;1.20;;;1.20;;
31454;SDS011;18084;53.028;8.834;2023-10-09T08:46:54;1.02;;;0.95;;
31454;SDS011;18084;53.028;8.834;2023-10-09T08:49:20;1.35;;;1.25;;
31454;SDS011;18084;53.028;8.834;2023-10-09T08:51:49;1.73;;;1.63;;
31454;SDS011;18084;53.028;8.834;2023-10-09T08:54:38;3.25;;;1.98;;
31454;SDS011;18084;53.028;8.834;2023-10-09T08:57:03;2.00;;;1.90;;
31454;SDS011;18084;53.028;8.834;2023-10-09T08:59:39;2.25;;;2.05;;
31454;SDS011;18084;53.028;8.834;2023-10-09T09:02:07;1.52;;;1.42;;
31454;SDS011;18084;53.028;8.834;2023-10-09T09:04:39;3.45;;;2.60;;
31454;SDS011;18084;53.028;8.834;2023-10-09T09:07:06;1.63;;;1.52;;
31454;SDS011;18084;53.028;8.834;2023-10-09T09:09:59;1.83;;;1.73;;
31454;SDS011;18084;53.028;8.834;2023-10-09T09:12:47;1.08;;;1.02;;
31454;SDS011;18084;53.028;8.834;2023-10-09T09:15:18;2.00;;;1.90;;
31454;SDS011;18084;53.028;8.834;2023-10-09T09:17:45;0.60;;;0.60;;
31454;SDS011;18084;53.028;8.834;2023-10-09T09:20:22;1.38;;;1.27;;
31454;SDS011;18084;53.028;8.834;2023-10-09T09:22:52;1.38;;;0.93;;
31454;SDS011;18084;53.028;8.834;2023-10-09T09:25:21;1.35;;;1.25;;
31454;SDS011;18084;53.028;8.834;2023-10-09T09:27:49;1.40;;;1.33;;
31454;SDS011;18084;53.028;8.834;2023-10-09T09:30:27;3.33;;;3.03;;
31454;SDS011;18084;53.028;8.834;2023-10-09T09:32:58;0.60;;;0.57;;
31454;SDS011;18084;53.028;8.834;2023-10-09T09:36:01;1.02;;;0.55;;
31454;SDS011;18084;53.028;8.834;2023-10-09T09:38:28;1.38;;;1.33;;
31454;SDS011;18084;53.028;8.834;2023-10-09T09:40:57;2.35;;;2.15;;
31454;SDS011;18084;53.028;8.834;2023-10-09T09:43:27;2.47;;;1.20;;
31454;SDS011;18084;53.028;8.834;2023-10-09T09:45:55;1.33;;;1.25;;
31454;SDS011;18084;53.028;8.834;2023-10-09T09:48:22;1.70;;;1.60;;
31454;SDS011;18084;53.028;8.834;2023-10-09T09:50:49;0.70;;;0.70;;
31454;SDS011;18084;53.028;8.834;2023-10-09T09:53:19;0.90;;;0.90;;
31454;SDS011;18084;53.028;8.834;2023-10-09T09:55:51;1.52;;;1.42;;
31454;SDS011;18084;53.028;8.834;2023-10-09T09:58:22;0.77;;;0.77;;
31454;SDS011;18084;53.028;8.834;2023-10-09T10:01:00;1.30;;;1.30;;
31454;SDS011;18084;53.028;8.834;2023-10-09T10:03:40;1.20;;;1.08;;
31454;SDS011;18084;53.028;8.834;2023-10-09T10:06:11;1.08;;;1.08;;
31454;SDS011;18084;53.028;8.834;2023-10-09T10:08:37;1.67;;;1.58;;
31454;SDS011;18084;53.028;8.834;2023-10-09T10:11:04;1.48;;;1.38;;
31454;SDS011;18084;53.028;8.834;2023-10-09T10:14:13;0.57;;;0.57;;
31454;SDS011;18084;53.028;8.834;2023-10-09T10:16:23;1.92;;;1.83;;
31454;SDS011;18084;53.028;8.834;2023-10-09T10:21:44;0.70;;;0.70;;
31454;SDS011;18084;53.028;8.834;2023-10-09T10:32:53;0.57;;;0.57;;
31454;SDS011;18084;53.028;8.834;2023-10-09T10:35:21;0.82;;;0.82;;
31454;SDS011;18084;53.028;8.834;2023-10-09T10:38:21;0.88;;;0.88;;
31454;SDS011;18084;53.028;8.834;2023-10-09T10:40:47;0.73;;;0.73;;
31454;SDS011;18084;53.028;8.834;2023-10-09T10:43:22;0.95;;;0.93;;
31454;SDS011;18084;53.028;8.834;2023-10-09T10:46:03;0.47;;;0.30;;
31454;SDS011;18084;53.028;8.834;2023-10-09T10:48:35;1.23;;;1.13;;
31454;SDS011;18084;53.028;8.834;2023-10-09T10:51:07;1.65;;;1.17;;
31454;SDS011;18084;53.028;8.834;2023-10-09T10:53:36;0.55;;;0.55;;
31454;SDS011;18084;53.028;8.834;2023-10-09T10:56:22;1.27;;;1.20;;
31454;SDS011;18084;53.028;8.834;2023-10-09T10:59:00;1.25;;;1.17;;
31454;SDS011;18084;53.028;8.834;2023-10-09T11:01:32;1.98;;;1.83;;
31454;SDS011;18084;53.028;8.834;2023-10-09T11:04:17;1.30;;;1.20;;
31454;SDS011;18084;53.028;8.834;2023-10-09T11:06:50;1.27;;;1.13;;
31454;SDS011;18084;53.028;8.834;2023-10-09T11:09:19;1.08;;;0.98;;
31454;SDS011;18084;53.028;8.834;2023-10-09T11:11:51;0.68;;;0.68;;
31454;SDS011;18084;53.028;8.834;2023-10-09T11:14:44;0.57;;;0.57;;
31454;SDS011;18084;53.028;8.834;2023-10-09T11:17:37;0.95;;;0.85;;
31454;SDS011;18084;53.028;8.834;2023-10-09T11:20:06;1.10;;;1.10;;
31454;SDS011;18084;53.028;8.834;2023-10-09T11:22:48;1.23;;;1.17;;
31454;SDS011;18084;53.028;8.834;2023-10-09T11:25:34;0.40;;;0.40;;
31454;SDS011;18084;53.028;8.834;2023-10-09T11:28:00;0.60;;;0.60;;
31454;SDS011;18084;53.028;8.834;2023-10-09T11:30:46;1.42;;;0.90;;
31454;SDS011;18084;53.028;8.834;2023-10-09T11:35:40;2.38;;;0.90;;
31454;SDS011;18084;53.028;8.834;2023-10-09T11:38:10;0.98;;;0.98;;
31454;SDS011;18084;53.028;8.834;2023-10-09T11:40:48;0.47;;;0.45;;
31454;SDS011;18084;53.028;8.834;2023-10-09T11:45:39;0.35;;;0.35;;
31454;SDS011;18084;53.028;8.834;2023-10-09T11:48:16;0.93;;;0.93;;
31454;SDS011;18084;53.028;8.834;2023-10-09T11:50:48;0.75;;;0.70;;
31454;SDS011;18084;53.028;8.834;2023-10-09T11:53:18;0.43;;;0.43;;
31454;SDS011;18084;53.028;8.834;2023-10-09T11:55:47;0.82;;;0.82;;
31454;SDS011;18084;53.028;8.834;2023-10-09T11:58:17;0.82;;;0.75;;
31454;SDS011;18084;53.028;8.834;2023-10-09T12:00:56;0.50;;;0.50;;
31454;SDS011;18084;53.028;8.834;2023-10-09T12:03:44;1.48;;;1.38;;
31454;SDS011;18084;53.028;8.834;2023-10-09T12:06:14;0.65;;;0.65;;
31454;SDS011;18084;53.028;8.834;2023-10-09T12:08:44;1.17;;;1.08;;
31454;SDS011;18084;53.028;8.834;2023-10-09T12:11:12;0.55;;;0.55;;
31454;SDS011;18084;53.028;8.834;2023-10-09T12:13:39;0.20;;;0.20;;
31454;SDS011;18084;53.028;8.834;2023-10-09T12:16:07;0.30;;;0.30;;
31454;SDS011;18084;53.028;8.834;2023-10-09T12:18:36;0.20;;;0.20;;
31454;SDS011;18084;53.028;8.834;2023-10-09T12:21:04;0.35;;;0.35;;
31454;SDS011;18084;53.028;8.834;2023-10-09T12:23:30;0.25;;;0.25;;
31454;SDS011;18084;53.028;8.834;2023-10-09T12:26:01;0.17;;;0.17;;
31454;SDS011;18084;53.028;8.834;2023-10-09T12:28:27;0.10;;;0.10;;
31454;SDS011;18084;53.028;8.834;2023-10-09T12:30:54;0.20;;;0.20;;
31454;SDS011;18084;53.028;8.834;2023-10-09T12:35:52;0.45;;;0.45;;
31454;SDS011;18084;53.028;8.834;2023-10-09T12:38:23;0.10;;;0.10;;
31454;SDS011;18084;53.028;8.834;2023-10-09T12:41:00;0.43;;;0.43;;
31454;SDS011;18084;53.028;8.834;2023-10-09T12:43:48;0.00;;;0.00;;
31454;SDS011;18084;53.028;8.834;2023-10-09T12:46:13;0.20;;;0.20;;
31454;SDS011;18084;53.028;8.834;2023-10-09T12:48:41;0.10;;;0.10;;
31454;SDS011;18084;53.028;8.834;2023-10-09T12:51:13;0.10;;;0.10;;
31454;SDS011;18084;53.028;8.834;2023-10-09T12:53:43;0.17;;;0.17;;
31454;SDS011;18084;53.028;8.834;2023-10-09T12:56:21;0.52;;;0.52;;
31454;SDS011;18084;53.028;8.834;2023-10-09T12:59:02;0.10;;;0.10;;
31454;SDS011;18084;53.028;8.834;2023-10-09T13:01:30;0.10;;;0.10;;
31454;SDS011;18084;53.028;8.834;2023-10-09T13:04:11;0.30;;;0.20;;
31454;SDS011;18084;53.028;8.834;2023-10-09T13:06:41;0.45;;;0.45;;
31454;SDS011;18084;53.028;8.834;2023-10-09T13:09:13;0.28;;;0.28;;
31454;SDS011;18084;53.028;8.834;2023-10-09T13:11:40;0.10;;;0.10;;
31454;SDS011;18084;53.028;8.834;2023-10-09T13:14:07;0.43;;;0.43;;
31454;SDS011;18084;53.028;8.834;2023-10-09T13:16:46;0.15;;;0.15;;
31454;SDS011;18084;53.028;8.834;2023-10-09T13:19:15;0.35;;;0.35;;
31454;SDS011;18084;53.028;8.834;2023-10-09T13:21:42;0.57;;;0.57;;
31454;SDS011;18084;53.028;8.834;2023-10-09T13:24:08;0.40;;;0.40;;
31454;SDS011;18084;53.028;8.834;2023-10-09T13:26:41;0.20;;;0.20;;
31454;SDS011;18084;53.028;8.834;2023-10-09T13:29:10;0.28;;;0.28;;
31454;SDS011;18084;53.028;8.834;2023-10-09T13:31:36;0.38;;;0.20;;
31454;SDS011;18084;53.028;8.834;2023-10-09T13:34:05;0.22;;;0.20;;
31454;SDS011;18084;53.028;8.834;2023-10-09T13:36:34;0.20;;;0.20;;
31454;SDS011;18084;53.028;8.834;2023-10-09T13:39:03;0.08;;;0.08;;
31454;SDS011;18084;53.028;8.834;2023-10-09T13:41:50;0.20;;;0.20;;
31454;SDS011;18084;53.028;8.834;2023-10-09T13:44:23;0.15;;;0.15;;
31454;SDS011;18084;53.028;8.834;2023-10-09T13:46:51;0.10;;;0.10;;
31454;SDS011;18084;53.028;8.834;2023-10-09T13:49:18;0.17;;;0.17;;
31454;SDS011;18084;53.028;8.834;2023-10-09T13:51:47;0.30;;;0.30;;
31454;SDS011;18084;53.028;8.834;2023-10-09T13:54:14;0.30;;;0.30;;
31454;SDS011;18084;53.028;8.834;2023-10-09T13:56:53;0.10;;;0.10;;
31454;SDS011;18084;53.028;8.834;2023-10-09T13:59:22;0.03;;;0.03;;
31454;SDS011;18084;53.028;8.834;2023-10-09T14:01:50;0.45;;;0.45;;
31454;SDS011;18084;53.028;8.834;2023-10-09T14:04:24;0.40;;;0.40;;
31454;SDS011;18084;53.028;8.834;2023-10-09T14:06:51;0.20;;;0.20;;
31454;SDS011;18084;53.028;8.834;2023-10-09T14:09:22;0.00;;;0.00;;
31454;SDS011;18084;53.028;8.834;2023-10-09T14:12:03;0.10;;;0.10;;
31454;SDS011;18084;53.028;8.834;2023-10-09T14:14:45;0.10;;;0.10;;
31454;SDS011;18084;53.028;8.834;2023-10-09T14:19:47;0.20;;;0.20;;
31454;SDS011;18084;53.028;8.834;2023-10-09T14:22:13;0.03;;;0.03;;
31454;SDS011;18084;53.028;8.834;2023-10-09T14:24:41;0.10;;;0.10;;
31454;SDS011;18084;53.028;8.834;2023-10-09T14:27:10;0.00;;;0.00;;
31454;SDS011;18084;53.028;8.834;2023-10-09T14:29:42;0.45;;;0.45;;
31454;SDS011;18084;53.028;8.834;2023-10-09T14:32:11;0.98;;;0.82;;
31454;SDS011;18084;53.028;8.834;2023-10-09T14:34:43;0.63;;;0.63;;
31454;SDS011;18084;53.028;8.834;2023-10-09T14:37:15;0.00;;;0.00;;
31454;SDS011;18084;53.028;8.834;2023-10-09T14:39:41;5.82;;;1.10;;
31454;SDS011;18084;53.028;8.834;2023-10-09T14:42:07;0.30;;;0.30;;
31454;SDS011;18084;53.028;8.834;2023-10-09T14:44:36;0.20;;;0.20;;
31454;SDS011;18084;53.028;8.834;2023-10-09T14:47:03;0.60;;;0.60;;
31454;SDS011;18084;53.028;8.834;2023-10-09T14:49:30;0.00;;;0.00;;
31454;SDS011;18084;53.028;8.834;2023-10-09T14:52:08;0.00;;;0.00;;
31454;SDS011;18084;53.028;8.834;2023-10-09T14:54:38;0.20;;;0.20;;
31454;SDS011;18084;53.028;8.834;2023-10-09T14:57:04;0.10;;;0.10;;
31454;SDS011;18084;53.028;8.834;2023-10-09T14:59:34;0.20;;;0.20;;
31454;SDS011;18084;53.028;8.834;2023-10-09T15:01:59;0.65;;;0.65;;
31454;SDS011;18084;53.028;8.834;2023-10-09T15:04:26;0.95;;;0.95;;
31454;SDS011;18084;53.028;8.834;2023-10-09T15:09:17;0.10;;;0.10;;
31454;SDS011;18084;53.028;8.834;2023-10-09T15:11:53;0.52;;;0.52;;
31454;SDS011;18084;53.028;8.834;2023-10-09T15:14:19;0.10;;;0.10;;
31454;SDS011;18084;53.028;8.834;2023-10-09T15:19:11;0.00;;;0.00;;
31454;SDS011;18084;53.028;8.834;2023-10-09T15:24:09;0.45;;;0.25;;
31454;SDS011;18084;53.028;8.834;2023-10-09T15:26:37;0.35;;;0.35;;
31454;SDS011;18084;53.028;8.834;2023-10-09T15:31:31;0.10;;;0.10;;
31454;SDS011;18084;53.028;8.834;2023-10-09T15:33:58;0.85;;;0.85;;
31454;SDS011;18084;53.028;8.834;2023-10-09T15:36:24;0.10;;;0.05;;
31454;SDS011;18084;53.028;8.834;2023-10-09T15:42:12;0.10;;;0.10;;
31454;SDS011;18084;53.028;8.834;2023-10-09T15:44:38;0.10;;;0.10;;
31454;SDS011;18084;53.028;8.834;2023-10-09T15:47:05;0.10;;;0.10;;
31454;SDS011;18084;53.028;8.834;2023-10-09T15:49:33;0.28;;;0.28;;
31454;SDS011;18084;53.028;8.834;2023-10-09T15:54:27;0.08;;;0.08;;
31454;SDS011;18084;53.028;8.834;2023-10-09T15:59:20;0.45;;;0.45;;
31454;SDS011;18084;53.028;8.834;2023-10-09T16:04:12;0.17;;;0.17;;
31454;SDS011;18084;53.028;8.834;2023-10-09T16:06:38;0.00;;;0.00;;
31454;SDS011;18084;53.028;8.834;2023-10-09T16:09:08;0.00;;;0.00;;
31454;SDS011;18084;53.028;8.834;2023-10-09T16:11:37;0.77;;;0.77;;
31454;SDS011;18084;53.028;8.834;2023-10-09T16:14:05;0.10;;;0.10;;
31454;SDS011;18084;53.028;8.834;2023-10-09T16:16:34;0.10;;;0.10;;
31454;SDS011;18084;53.028;8.834;2023-10-09T16:21:58;0.00;;;0.00;;
31454;SDS011;18084;53.028;8.834;2023-10-09T16:24:29;0.20;;;0.20;;
31454;SDS011;18084;53.028;8.834;2023-10-09T16:26:59;0.20;;;0.20;;
31454;SDS011;18084;53.028;8.834;2023-10-09T16:31:50;0.10;;;0.10;;
31454;SDS011;18084;53.028;8.834;2023-10-09T16:34:20;0.10;;;0.10;;
31454;SDS011;18084;53.028;8.834;2023-10-09T16:39:11;0.08;;;0.08;;
31454;SDS011;18084;53.028;8.834;2023-10-09T16:41:49;0.00;;;0.00;;
31454;SDS011;18084;53.028;8.834;2023-10-09T16:46:43;0.20;;;0.20;;
31454;SDS011;18084;53.028;8.834;2023-10-09T16:49:12;0.13;;;0.13;;
31454;SDS011;18084;53.028;8.834;2023-10-09T16:54:11;0.05;;;0.05;;
31454;SDS011;18084;53.028;8.834;2023-10-09T16:56:40;0.00;;;0.00;;
31454;SDS011;18084;53.028;8.834;2023-10-09T16:59:07;0.40;;;0.40;;
31454;SDS011;18084;53.028;8.834;2023-10-09T17:01:38;0.13;;;0.13;;
31454;SDS011;18084;53.028;8.834;2023-10-09T17:04:05;0.10;;;0.10;;
31454;SDS011;18084;53.028;8.834;2023-10-09T17:06:36;0.10;;;0.10;;
31454;SDS011;18084;53.028;8.834;2023-10-09T17:09:03;0.70;;;0.60;;
31454;SDS011;18084;53.028;8.834;2023-10-09T17:11:31;0.10;;;0.00;;
31454;SDS011;18084;53.028;8.834;2023-10-09T17:16:23;0.00;;;0.00;;
31454;SDS011;18084;53.028;8.834;2023-10-09T17:18:50;0.00;;;0.00;;
31454;SDS011;18084;53.028;8.834;2023-10-09T17:21:19;0.10;;;0.10;;
31454;SDS011;18084;53.028;8.834;2023-10-09T17:23:51;0.85;;;0.57;;
31454;SDS011;18084;53.028;8.834;2023-10-09T17:26:23;0.10;;;0.10;;
31454;SDS011;18084;53.028;8.834;2023-10-09T17:31:17;0.08;;;0.08;;
31454;SDS011;18084;53.028;8.834;2023-10-09T17:33:46;0.10;;;0.10;;
31454;SDS011;18084;53.028;8.834;2023-10-09T17:36:12;0.10;;;0.10;;
31454;SDS011;18084;53.028;8.834;2023-10-09T17:41:06;0.13;;;0.13;;
31454;SDS011;18084;53.028;8.834;2023-10-09T17:43:33;0.28;;;0.28;;
31454;SDS011;18084;53.028;8.834;2023-10-09T17:46:00;0.00;;;0.00;;
31454;SDS011;18084;53.028;8.834;2023-10-09T17:48:28;0.10;;;0.10;;
31454;SDS011;18084;53.028;8.834;2023-10-09T17:50:55;0.10;;;0.10;;
31454;SDS011;18084;53.028;8.834;2023-10-09T17:53:21;0.10;;;0.10;;
31454;SDS011;18084;53.028;8.834;2023-10-09T17:58:16;0.03;;;0.03;;
31454;SDS011;18084;53.028;8.834;2023-10-09T18:13:23;0.00;;;0.00;;
31454;SDS011;18084;53.028;8.834;2023-10-09T18:16:04;0.10;;;0.10;;
31454;SDS011;18084;53.028;8.834;2023-10-09T18:18:37;0.00;;;0.00;;
31454;SDS011;18084;53.028;8.834;2023-10-09T18:21:08;0.00;;;0.00;;
31454;SDS011;18084;53.028;8.834;2023-10-09T18:23:34;0.03;;;0.03;;
31454;SDS011;18084;53.028;8.834;2023-10-09T18:26:01;2.08;;;0.10;;
31454;SDS011;18084;53.028;8.834;2023-10-09T18:28:28;1.13;;;0.57;;
31454;SDS011;18084;53.028;8.834;2023-10-09T18:33:19;0.00;;;0.00;;
31454;SDS011;18084;53.028;8.834;2023-10-09T18:38:10;0.22;;;0.22;;
31454;SDS011;18084;53.028;8.834;2023-10-09T18:40:41;0.00;;;0.00;;
31454;SDS011;18084;53.028;8.834;2023-10-09T18:43:11;0.20;;;0.20;;
31454;SDS011;18084;53.028;8.834;2023-10-09T18:45:40;0.00;;;0.00;;
31454;SDS011;18084;53.028;8.834;2023-10-09T18:50:39;0.10;;;0.10;;
31454;SDS011;18084;53.028;8.834;2023-10-09T18:53:06;0.10;;;0.10;;
31454;SDS011;18084;53.028;8.834;2023-10-09T18:55:38;0.00;;;0.00;;
31454;SDS011;18084;53.028;8.834;2023-10-09T18:58:04;0.20;;;0.10;;
31454;SDS011;18084;53.028;8.834;2023-10-09T19:00:34;0.00;;;0.00;;
31454;SDS011;18084;53.028;8.834;2023-10-09T19:03:09;0.32;;;0.32;;
31454;SDS011;18084;53.028;8.834;2023-10-09T19:05:41;0.00;;;0.00;;
31454;SDS011;18084;53.028;8.834;2023-10-09T19:08:09;0.10;;;0.10;;
31454;SDS011;18084;53.028;8.834;2023-10-09T19:10:35;0.22;;;0.22;;
31454;SDS011;18084;53.028;8.834;2023-10-09T19:13:02;0.10;;;0.10;;
31454;SDS011;18084;53.028;8.834;2023-10-09T19:15:35;0.00;;;0.00;;
31454;SDS011;18084;53.028;8.834;2023-10-09T19:18:02;0.00;;;0.00;;
31454;SDS011;18084;53.028;8.834;2023-10-09T19:20:28;3.10;;;0.95;;
31454;SDS011;18084;53.028;8.834;2023-10-09T19:22:58;0.10;;;0.10;;
31454;SDS011;18084;53.028;8.834;2023-10-09T19:25:28;0.10;;;0.10;;
31454;SDS011;18084;53.028;8.834;2023-10-09T19:27:58;0.08;;;0.08;;
31454;SDS011;18084;53.028;8.834;2023-10-09T19:32:49;0.00;;;0.00;;
31454;SDS011;18084;53.028;8.834;2023-10-09T19:37:41;0.03;;;0.03;;
31454;SDS011;18084;53.028;8.834;2023-10-09T19:40:07;0.00;;;0.00;;
31454;SDS011;18084;53.028;8.834;2023-10-09T19:42:36;0.00;;;0.00;;
31454;SDS011;18084;53.028;8.834;2023-10-09T19:47:42;0.10;;;0.10;;
31454;SDS011;18084;53.028;8.834;2023-10-09T19:50:08;0.00;;;0.00;;
31454;SDS011;18084;53.028;8.834;2023-10-09T19:52:40;0.00;;;0.00;;
31454;SDS011;18084;53.028;8.834;2023-10-09T19:55:15;0.05;;;0.05;;
31454;SDS011;18084;53.028;8.834;2023-10-09T19:57:46;0.00;;;0.00;;
31454;SDS011;18084;53.028;8.834;2023-10-09T20:00:12;0.30;;;0.30;;
31454;SDS011;18084;53.028;8.834;2023-10-09T20:02:46;0.10;;;0.10;;
31454;SDS011;18084;53.028;8.834;2023-10-09T20:05:18;0.00;;;0.00;;
31454;SDS011;18084;53.028;8.834;2023-10-09T20:10:09;0.00;;;0.00;;
31454;SDS011;18084;53.028;8.834;2023-10-09T20:15:01;0.10;;;0.10;;
31454;SDS011;18084;53.028;8.834;2023-10-09T20:17:27;0.10;;;0.10;;
31454;SDS011;18084;53.028;8.834;2023-10-09T20:22:21;0.08;;;0.08;;
31454;SDS011;18084;53.028;8.834;2023-10-09T20:24:47;0.20;;;0.20;;
31454;SDS011;18084;53.028;8.834;2023-10-09T20:29:42;0.00;;;0.00;;
31454;SDS011;18084;53.028;8.834;2023-10-09T20:34:38;0.55;;;0.32;;
31454;SDS011;18084;53.028;8.834;2023-10-09T20:37:08;0.00;;;0.00;;
31454;SDS011;18084;53.028;8.834;2023-10-09T20:42:01;0.40;;;0.10;;
31454;SDS011;18084;53.028;8.834;2023-10-09T20:44:28;0.10;;;0.10;;
31454;SDS011;18084;53.028;8.834;2023-10-09T20:49:19;0.00;;;0.00;;
31454;SDS011;18084;53.028;8.834;2023-10-09T20:51:45;0.10;;;0.10;;
31454;SDS011;18084;53.028;8.834;2023-10-09T20:54:11;0.20;;;0.20;;
31454;SDS011;18084;53.028;8.834;2023-10-09T20:59:02;0.08;;;0.08;;
31454;SDS011;18084;53.028;8.834;2023-10-09T21:01:30;0.03;;;0.03;;
31454;SDS011;18084;53.028;8.834;2023-10-09T21:03:56;0.25;;;0.25;;
31454;SDS011;18084;53.028;8.834;2023-10-09T21:08:49;0.00;;;0.00;;
31454;SDS011;18084;53.028;8.834;2023-10-09T21:11:19;0.00;;;0.00;;
31454;SDS011;18084;53.028;8.834;2023-10-09T21:16:11;0.00;;;0.00;;
31454;SDS011;18084;53.028;8.834;2023-10-09T21:21:02;0.10;;;0.10;;
31454;SDS011;18084;53.028;8.834;2023-10-09T21:23:33;0.10;;;0.10;;
31454;SDS011;18084;53.028;8.834;2023-10-09T21:26:01;0.00;;;0.00;;
31454;SDS011;18084;53.028;8.834;2023-10-09T21:28:27;0.00;;;0.00;;
31454;SDS011;18084;53.028;8.834;2023-10-09T21:33:19;0.50;;;0.50;;
31454;SDS011;18084;53.028;8.834;2023-10-09T21:35:50;0.00;;;0.00;;
31454;SDS011;18084;53.028;8.834;2023-10-09T21:38:19;0.00;;;0.00;;
31454;SDS011;18084;53.028;8.834;2023-10-09T21:43:13;0.17;;;0.00;;
31454;SDS011;18084;53.028;8.834;2023-10-09T21:48:09;0.00;;;0.00;;
31454;SDS011;18084;53.028;8.834;2023-10-09T21:50:35;0.03;;;0.03;;
31454;SDS011;18084;53.028;8.834;2023-10-09T21:53:02;0.00;;;0.00;;
31454;SDS011;18084;53.028;8.834;2023-10-09T21:55:28;0.20;;;0.10;;
31454;SDS011;18084;53.028;8.834;2023-10-09T21:57:56;0.00;;;0.00;;
31454;SDS011;18084;53.028;8.834;2023-10-09T22:00:24;0.05;;;0.05;;
31454;SDS011;18084;53.028;8.834;2023-10-09T22:03:00;1.00;;;0.80;;
31454;SDS011;18084;53.028;8.834;2023-10-09T22:05:30;0.00;;;0.00;;
31454;SDS011;18084;53.028;8.834;2023-10-09T22:07:57;0.03;;;0.03;;
31454;SDS011;18084;53.028;8.834;2023-10-09T22:10:24;0.10;;;0.10;;
31454;SDS011;18084;53.028;8.834;2023-10-09T22:15:16;0.00;;;0.00;;
31454;SDS011;18084;53.028;8.834;2023-10-09T22:17:44;0.10;;;0.10;;
31454;SDS011;18084;53.028;8.834;2023-10-09T22:22:41;0.10;;;0.10;;
31454;SDS011;18084;53.028;8.834;2023-10-09T22:25:11;0.00;;;0.00;;
31454;SDS011;18084;53.028;8.834;2023-10-09T22:27:38;0.00;;;0.00;;
31454;SDS011;18084;53.028;8.834;2023-10-09T22:30:05;0.10;;;0.10;;
31454;SDS011;18084;53.028;8.834;2023-10-09T22:32:38;0.10;;;0.10;;
31454;SDS011;18084;53.028;8.834;2023-10-09T22:35:07;0.43;;;0.43;;
31454;SDS011;18084;53.028;8.834;2023-10-09T22:37:38;0.10;;;0.10;;
31454;SDS011;18084;53.028;8.834;2023-10-09T22:40:04;0.05;;;0.05;;
31454;SDS011;18084;53.028;8.834;2023-10-09T22:42:46;0.10;;;0.10;;
31454;SDS011;18084;53.028;8.834;2023-10-09T22:45:12;0.10;;;0.10;;
31454;SDS011;18084;53.028;8.834;2023-10-09T22:47:39;0.43;;;0.43;;
31454;SDS011;18084;53.028;8.834;2023-10-09T22:50:07;0.15;;;0.15;;
31454;SDS011;18084;53.028;8.834;2023-10-09T22:52:45;0.13;;;0.13;;
31454;SDS011;18084;53.028;8.834;2023-10-09T22:55:12;0.00;;;0.00;;
31454;SDS011;18084;53.028;8.834;2023-10-09T22:57:52;0.35;;;0.35;;
31454;SDS011;18084;53.028;8.834;2023-10-09T23:00:21;0.03;;;0.03;;
31454;SDS011;18084;53.028;8.834;2023-10-09T23:03:04;0.10;;;0.10;;
31454;SDS011;18084;53.028;8.834;2023-10-09T23:05:35;0.00;;;0.00;;
31454;SDS011;18084;53.028;8.834;2023-10-09T23:08:09;0.13;;;0.13;;
31454;SDS011;18084;53.028;8.834;2023-10-09T23:10:41;0.00;;;0.00;;
31454;SDS011;18084;53.028;8.834;2023-10-09T23:13:15;0.13;;;0.10;;
31454;SDS011;18084;53.028;8.834;2023-10-09T23:15:42;0.22;;;0.22;;
31454;SDS011;18084;53.028;8.834;2023-10-09T23:18:15;0.00;;;0.00;;
31454;SDS011;18084;53.028;8.834;2023-10-09T23:21:10;0.00;;;0.00;;
31454;SDS011;18084;53.028;8.834;2023-10-09T23:23:45;0.00;;;0.00;;